createdAt,value
2019-01-15T00:03:05.607Z,101407.44
2019-01-15T00:07:10.651Z,101404.42
2019-01-15T00:11:15.748Z,101400.52
2019-01-15T00:15:20.872Z,101403.14
2019-01-15T00:19:25.933Z,101398.33
2019-01-15T00:23:31.059Z,101397.50
2019-01-15T00:27:36.135Z,101390.53
2019-01-15T00:31:41.494Z,101396.55
2019-01-15T00:35:47.351Z,101397.37
2019-01-15T00:39:52.474Z,101406.95
2019-01-15T00:43:57.713Z,101404.41
2019-01-15T00:48:02.787Z,101399.63
2019-01-15T00:52:07.834Z,101398.78
2019-01-15T00:56:13.905Z,101410.90
2019-01-15T01:00:23.168Z,101404.39
2019-01-15T01:04:28.229Z,101397.00
2019-01-15T01:08:33.467Z,101402.25
2019-01-15T01:12:38.504Z,101403.02
2019-01-15T01:16:43.559Z,101402.13
2019-01-15T01:20:48.506Z,101404.68
2019-01-15T01:24:53.564Z,101396.00
2019-01-15T01:28:58.701Z,101399.44
2019-01-15T01:33:03.711Z,101415.09
2019-01-15T01:37:08.780Z,101408.11
2019-01-15T01:41:13.816Z,101408.16
2019-01-15T01:45:19.447Z,101409.36
2019-01-15T01:49:24.565Z,101404.54
2019-01-15T01:53:29.677Z,101409.72
2019-01-15T01:57:34.758Z,101412.33
2019-01-15T02:01:39.797Z,101428.64
2019-01-15T02:05:44.911Z,101423.33
2019-01-15T02:09:51.004Z,101422.10
2019-01-15T02:13:56.038Z,101447.63
2019-01-15T02:18:01.063Z,101443.61
2019-01-15T02:22:06.205Z,101425.69
2019-01-15T02:26:11.247Z,101426.95
2019-01-15T02:30:21.470Z,101429.45
2019-01-15T02:34:26.499Z,101413.73
2019-01-15T02:38:31.505Z,101416.30
2019-01-15T02:42:36.463Z,101423.98
2019-01-15T02:46:41.415Z,101418.25
2019-01-15T02:50:46.369Z,101413.92
2019-01-15T02:54:51.394Z,101412.19
2019-01-15T02:58:56.396Z,101418.25
2019-01-15T03:03:01.413Z,101389.97
2019-01-15T03:07:06.471Z,101387.80
2019-01-15T03:11:11.456Z,101389.98
2019-01-15T03:15:17.570Z,101379.47
2019-01-15T03:19:22.525Z,101374.31
2019-01-15T03:23:27.601Z,101372.95
2019-01-15T03:27:32.637Z,101361.95
2019-01-15T03:31:37.684Z,101366.77
2019-01-15T03:35:42.805Z,101372.94
2019-01-15T03:39:47.756Z,101361.67
2019-01-15T03:43:52.757Z,101375.93
2019-01-15T03:47:57.721Z,101365.91
2019-01-15T03:52:02.743Z,101364.70
2019-01-15T03:56:07.803Z,101359.95
2019-01-15T04:00:20.987Z,101365.58
2019-01-15T04:04:26.009Z,101347.34
2019-01-15T04:08:31.078Z,101354.33
2019-01-15T04:12:36.195Z,101343.00
2019-01-15T04:16:41.250Z,101343.81
2019-01-15T04:20:46.278Z,101345.09
2019-01-15T04:24:51.529Z,101342.45
2019-01-15T04:28:56.596Z,101342.92
2019-01-15T04:33:01.944Z,101342.92
2019-01-15T04:37:06.997Z,101335.99
2019-01-15T04:41:12.086Z,101330.71
2019-01-15T04:45:18.491Z,101318.54
2019-01-15T04:49:23.533Z,101302.41
2019-01-15T04:53:28.682Z,101301.11
2019-01-15T04:57:33.772Z,101303.81
2019-01-15T05:01:38.942Z,101304.66
2019-01-15T05:05:44.095Z,101291.19
2019-01-15T05:09:49.237Z,101292.02
2019-01-15T05:13:55.357Z,101287.25
2019-01-15T05:18:00.437Z,101278.38
2019-01-15T05:22:05.525Z,101274.77
2019-01-15T05:26:10.642Z,101270.69
2019-01-15T05:30:18.427Z,101272.85
2019-01-15T05:34:23.511Z,101280.91
2019-01-15T05:38:28.560Z,101276.48
2019-01-15T05:42:33.736Z,101267.24
2019-01-15T05:46:38.866Z,101270.05
2019-01-15T05:50:49.647Z,101277.77
2019-01-15T05:54:54.831Z,101267.63
2019-01-15T05:58:59.893Z,101276.23
2019-01-15T06:03:05.107Z,101270.98
2019-01-15T06:07:10.189Z,101267.01
2019-01-15T06:11:15.235Z,101264.43
2019-01-15T06:15:20.290Z,101266.05
2019-01-15T06:19:25.347Z,101254.48
2019-01-15T06:23:31.481Z,101251.25
2019-01-15T06:27:36.529Z,101252.77
2019-01-15T06:31:41.590Z,101246.61
2019-01-15T06:35:46.962Z,101245.16
2019-01-15T06:39:52.043Z,101241.11
2019-01-15T06:43:57.106Z,101228.91
2019-01-15T06:48:02.284Z,101240.17
2019-01-15T06:52:07.377Z,101234.73
2019-01-15T06:56:12.550Z,101243.80
2019-01-15T07:00:22.741Z,101255.47
2019-01-15T07:04:27.865Z,101249.39
2019-01-15T07:08:33.288Z,101252.75
2019-01-15T07:12:38.488Z,101242.44
2019-01-15T07:16:43.565Z,101246.84
2019-01-15T07:20:48.665Z,101246.31
2019-01-15T07:24:53.760Z,101255.95
2019-01-15T07:28:58.932Z,101241.99
2019-01-15T07:33:04.169Z,101249.87
2019-01-15T07:37:09.215Z,101256.39
2019-01-15T07:41:14.286Z,101273.78
2019-01-15T07:45:20.239Z,101277.55
2019-01-15T07:49:25.318Z,101279.97
2019-01-15T07:53:30.429Z,101292.25
2019-01-15T07:57:35.526Z,101283.06
2019-01-15T08:01:41.779Z,101271.23
2019-01-15T08:05:46.943Z,101265.11
2019-01-15T08:09:51.995Z,101265.48
2019-01-15T08:13:57.091Z,101265.03
2019-01-15T08:18:02.178Z,101246.82
2019-01-15T08:22:07.329Z,101242.98
2019-01-15T08:26:12.755Z,101233.34
2019-01-15T08:30:22.861Z,101254.17
2019-01-15T08:34:27.882Z,101255.48
2019-01-15T08:38:32.917Z,101255.73
2019-01-15T08:42:38.003Z,101253.03
2019-01-15T08:46:43.040Z,101253.72
2019-01-15T08:50:49.534Z,101253.86
2019-01-15T08:54:54.587Z,101255.05
2019-01-15T08:58:59.610Z,101248.83
2019-01-15T09:03:04.849Z,101256.04
2019-01-15T09:07:09.992Z,101245.45
2019-01-15T09:11:15.042Z,101245.67
2019-01-15T09:15:20.262Z,101242.38
2019-01-15T09:19:25.321Z,101238.93
2019-01-15T09:23:30.378Z,101249.27
2019-01-15T09:27:35.430Z,101251.19
2019-01-15T09:31:40.750Z,101233.73
2019-01-15T09:35:45.827Z,101250.95
2019-01-15T09:39:50.839Z,101246.67
2019-01-15T09:43:55.928Z,101235.24
2019-01-15T09:48:04.940Z,101236.67
2019-01-15T09:52:13.146Z,101248.29
2019-01-15T09:56:16.790Z,101235.45
2019-01-15T10:00:21.826Z,101239.18
2019-01-15T10:04:26.916Z,101248.03
2019-01-15T10:08:32.055Z,101253.63
2019-01-15T10:12:37.159Z,101241.59
2019-01-15T10:16:42.202Z,101248.04
2019-01-15T10:20:47.229Z,101244.11
2019-01-15T10:24:52.641Z,101231.70
2019-01-15T10:28:57.685Z,101222.18
2019-01-15T10:33:42.734Z,101214.67
2019-01-15T10:37:47.814Z,101223.21
2019-01-15T10:41:52.853Z,101226.77
2019-01-15T10:45:58.850Z,101218.97
2019-01-15T10:50:04.760Z,101201.80
2019-01-15T10:54:09.832Z,101190.86
2019-01-15T10:58:17.624Z,101207.28
2019-01-15T11:02:21.653Z,101200.84
2019-01-15T11:06:26.672Z,101200.02
2019-01-15T11:10:31.716Z,101199.50
2019-01-15T11:14:37.246Z,101211.37
2019-01-15T11:18:42.289Z,101181.83
2019-01-15T11:22:47.355Z,101186.73
2019-01-15T11:26:52.369Z,101181.79
2019-01-15T11:30:57.422Z,101185.67
2019-01-15T11:35:02.476Z,101176.59
2019-01-15T11:39:09.990Z,101168.52
2019-01-15T11:43:15.058Z,101190.56
2019-01-15T11:47:20.135Z,101179.92
2019-01-15T11:51:25.439Z,101159.77
2019-01-15T11:55:30.499Z,101163.47
2019-01-15T11:59:35.527Z,101165.87
2019-01-15T12:03:54.748Z,101161.66
2019-01-15T12:08:18.835Z,101163.77
2019-01-15T12:12:41.365Z,101158.23
2019-01-15T12:17:03.755Z,101157.06
2019-01-15T12:21:26.495Z,101151.42
2019-01-15T12:25:42.090Z,101153.98
2019-01-15T12:30:03.904Z,101152.02
2019-01-15T12:34:30.895Z,101145.00
2019-01-15T12:38:53.624Z,101150.98
2019-01-15T12:43:16.115Z,101144.94
2019-01-15T12:47:38.584Z,101129.45
2019-01-15T12:51:51.704Z,101128.67
2019-01-15T12:56:08.839Z,101129.07
2019-01-15T13:00:32.035Z,101123.27
2019-01-15T13:04:49.220Z,101116.25
2019-01-15T13:09:22.248Z,101123.75
2019-01-15T13:13:46.271Z,101121.05
2019-01-15T13:18:09.520Z,101117.44
2019-01-15T13:22:43.630Z,101104.59
2019-01-15T13:27:13.818Z,101116.00
2019-01-15T13:31:45.722Z,101113.39
2019-01-15T13:36:05.938Z,101103.84
2019-01-15T13:40:30.848Z,101105.58
2019-01-15T13:44:53.662Z,101100.53
2019-01-15T13:49:17.775Z,101088.08
2019-01-15T13:53:38.108Z,101093.52
2019-01-15T13:58:02.231Z,101082.97
2019-01-15T14:02:29.302Z,101086.86
2019-01-15T14:06:53.390Z,101086.86
2019-01-15T14:11:16.095Z,101091.19
2019-01-15T14:15:49.252Z,101097.75
2019-01-15T14:20:10.346Z,101087.44
2019-01-15T14:24:37.205Z,101079.98
2019-01-15T14:29:05.423Z,101094.81
2019-01-15T14:33:21.171Z,101080.45
2019-01-15T14:37:48.149Z,101073.62
2019-01-15T14:42:10.773Z,101073.62
2019-01-15T14:46:35.322Z,101069.17
2019-01-15T14:51:11.647Z,101066.20
2019-01-15T14:55:34.551Z,101073.10
2019-01-15T14:59:57.490Z,101078.34
2019-01-15T15:04:30.613Z,101069.97
2019-01-15T15:09:03.756Z,101066.14
2019-01-15T15:13:32.165Z,101072.33
2019-01-15T15:17:53.595Z,101070.48
2019-01-15T15:22:23.925Z,101069.17
2019-01-15T15:26:46.484Z,101063.16
2019-01-15T15:31:09.205Z,101064.92
2019-01-15T15:35:32.303Z,101063.02
2019-01-15T15:39:54.988Z,101062.16
2019-01-15T15:44:17.647Z,101081.16
2019-01-15T15:48:44.799Z,101054.55
2019-01-15T15:53:11.903Z,101054.66
2019-01-15T15:57:36.063Z,101048.91
2019-01-15T16:02:12.292Z,101051.53
2019-01-15T16:06:42.577Z,101054.15
2019-01-15T16:11:11.075Z,101053.69
2019-01-15T16:15:28.183Z,101046.06
2019-01-15T16:19:51.886Z,101049.20
2019-01-15T16:24:10.351Z,101050.96
2019-01-15T16:28:37.396Z,101045.83
2019-01-15T16:33:04.271Z,101045.83
2019-01-15T16:37:17.981Z,101046.83
2019-01-15T16:41:46.093Z,101048.00
2019-01-15T16:46:16.461Z,101046.71
2019-01-15T16:50:52.323Z,101041.39
2019-01-15T16:55:31.325Z,101036.94
2019-01-15T17:00:08.817Z,101044.69
2019-01-15T17:04:32.873Z,101041.50
2019-01-15T17:09:05.996Z,101043.33
2019-01-15T17:13:36.315Z,101023.15
2019-01-15T17:17:52.966Z,101031.47
2019-01-15T17:22:29.379Z,101032.72
2019-01-15T17:27:02.495Z,101029.30
2019-01-15T17:31:28.674Z,101040.25
2019-01-15T17:35:51.628Z,101038.25
2019-01-15T17:40:14.441Z,101038.25
2019-01-15T17:44:38.146Z,101053.52
2019-01-15T17:49:05.270Z,101036.94
2019-01-15T17:53:28.104Z,101035.52
2019-01-15T17:57:50.457Z,101047.03
2019-01-15T18:02:11.518Z,101033.52
2019-01-15T18:06:34.262Z,101027.77
2019-01-15T18:10:56.977Z,101034.61
2019-01-15T18:15:22.423Z,101030.78
2019-01-15T18:19:46.551Z,101029.36
2019-01-15T18:24:19.827Z,101016.43
2019-01-15T18:28:32.601Z,101019.05
2019-01-15T18:32:59.664Z,101012.22
2019-01-15T18:37:14.151Z,101016.48
2019-01-15T18:41:33.662Z,101029.53
2019-01-15T18:46:06.631Z,101016.89
2019-01-15T18:50:33.711Z,101012.10
2019-01-15T18:55:06.737Z,101026.52
2019-01-15T18:59:29.532Z,101024.35
2019-01-15T19:03:53.839Z,101020.95
2019-01-15T19:08:25.430Z,101018.77
2019-01-15T19:12:50.332Z,101003.90
2019-01-15T19:17:17.485Z,101008.70
2019-01-15T19:21:41.574Z,101018.42
2019-01-15T19:26:00.218Z,101019.73
2019-01-15T19:30:19.350Z,101014.20
2019-01-15T19:34:42.156Z,101009.42
2019-01-15T19:39:05.291Z,101015.69
2019-01-15T19:43:29.405Z,101016.69
2019-01-15T19:48:11.221Z,101004.04
2019-01-15T19:52:32.677Z,101004.04
2019-01-15T19:56:57.182Z,100995.52
2019-01-15T20:01:39.304Z,101004.75
2019-01-15T20:06:06.223Z,101004.75
2019-01-15T20:10:42.415Z,101007.45
2019-01-15T20:15:05.020Z,100999.59
2019-01-15T20:19:32.231Z,101011.90
2019-01-15T20:23:54.861Z,101006.66
2019-01-15T20:28:15.812Z,101002.50
2019-01-15T20:32:45.681Z,101003.44
2019-01-15T20:37:11.596Z,101000.68
2019-01-15T20:41:35.139Z,100990.22
2019-01-15T20:46:05.326Z,101000.96
2019-01-15T20:50:38.892Z,100993.89
2019-01-15T20:55:05.990Z,100993.89
2019-01-15T20:59:28.408Z,100992.76
2019-01-15T21:03:47.193Z,100994.98
2019-01-15T21:07:59.866Z,100994.13
2019-01-15T21:12:24.013Z,100997.14
2019-01-15T21:16:48.095Z,100993.22
2019-01-15T21:21:21.208Z,100993.22
2019-01-15T21:25:47.468Z,100985.47
2019-01-15T21:30:14.654Z,100986.78
2019-01-15T21:34:37.256Z,100991.96
2019-01-15T21:39:00.004Z,100981.30
2019-01-15T21:43:18.018Z,100971.85
2019-01-15T21:48:00.372Z,100967.80
2019-01-15T21:52:23.338Z,100967.01
2019-01-15T21:56:35.533Z,100968.59
2019-01-15T22:00:58.239Z,100964.67
2019-01-15T22:05:22.567Z,100955.09
2019-01-15T22:09:45.339Z,100955.89
2019-01-15T22:14:09.478Z,100942.70
2019-01-15T22:18:42.648Z,100943.19
2019-01-15T22:23:05.466Z,100942.39
2019-01-15T22:27:22.364Z,100938.37
2019-01-15T22:31:40.717Z,100946.17
2019-01-15T22:36:12.351Z,100947.58
2019-01-15T22:40:26.244Z,100920.48
2019-01-15T22:44:39.142Z,100919.32
2019-01-15T22:48:59.098Z,100918.53
2019-01-15T22:53:21.645Z,100921.03
2019-01-15T22:57:55.249Z,100906.09
2019-01-15T23:02:16.855Z,100894.87
2019-01-15T23:06:45.268Z,100906.85
2019-01-15T23:11:02.671Z,100908.68
2019-01-15T23:15:16.010Z,100910.73
2019-01-15T23:19:37.551Z,100907.95
2019-01-15T23:24:00.416Z,100915.39
2019-01-15T23:28:17.930Z,100897.09
2019-01-15T23:32:45.174Z,100899.30
2019-01-15T23:36:59.751Z,100888.78
2019-01-15T23:41:39.163Z,100902.06
2019-01-15T23:46:15.414Z,100893.95
2019-01-15T23:50:29.326Z,100899.14
2019-01-15T23:55:05.544Z,100886.50
2019-01-15T23:59:32.865Z,100883.42
